Time;durP1;ratioP1;P1;durP2;ratioP2;P2;SDS_P1;SDS_P2;PMS_P1;PMS_P2;Temp;Humidity;BMP_temperature;BMP_pressure;BME280_temperature;BME280_humidity;BME280_pressure;Samples;Min_cycle;Max_cycle;Signal;HPM_P1;HPM_P2
2022/06/09 00:00:23;;;;;;;2.10;0.70;;;;;;;13.86;100.00;98204.66;5094688;28;20196;-51
2022/06/09 00:02:54;;;;;;;3.10;0.60;;;;;;;13.78;100.00;98215.25;5094627;28;20195;-52
2022/06/09 00:05:23;;;;;;;3.33;0.80;;;;;;;13.73;100.00;98216.63;5093335;28;20606;-52
2022/06/09 00:07:54;;;;;;;4.07;0.70;;;;;;;13.69;100.00;98222.41;5093268;28;20220;-50
2022/06/09 00:10:24;;;;;;;2.33;0.60;;;;;;;13.65;100.00;98223.75;5094415;28;20656;-51
2022/06/09 00:12:52;;;;;;;3.23;0.70;;;;;;;13.65;100.00;98229.00;5092955;28;20219;-51
2022/06/09 00:15:21;;;;;;;5.80;0.93;;;;;;;13.58;100.00;98221.84;5092848;28;20652;-53
2022/06/09 00:17:48;;;;;;;3.40;0.97;;;;;;;13.60;100.00;98226.94;5093192;28;20204;-51
2022/06/09 00:20:16;;;;;;;3.80;0.87;;;;;;;13.58;100.00;98226.28;5094131;28;20222;-51
2022/06/09 00:22:44;;;;;;;1.50;0.70;;;;;;;13.58;100.00;98226.28;5093949;28;20201;-52
2022/06/09 00:25:11;;;;;;;1.33;0.70;;;;;;;13.63;100.00;98231.81;5093958;28;20268;-52
2022/06/09 00:27:39;;;;;;;4.20;0.97;;;;;;;13.54;100.00;98238.94;5093353;28;20591;-51
2022/06/09 00:30:09;;;;;;;2.87;0.90;;;;;;;13.51;100.00;98233.25;5092781;28;20202;-52
2022/06/09 00:32:37;;;;;;;1.07;0.70;;;;;;;13.52;100.00;98237.50;5093329;28;20182;-51
2022/06/09 00:35:05;;;;;;;1.57;0.60;;;;;;;13.48;100.00;98244.09;5093523;28;20599;-53
2022/06/09 00:37:33;;;;;;;1.67;0.70;;;;;;;13.45;100.00;98237.38;5093154;28;20304;-52
2022/06/09 00:40:00;;;;;;;3.93;0.77;;;;;;;13.47;100.00;98247.72;5093342;28;20662;-50
2022/06/09 00:42:27;;;;;;;2.30;0.63;;;;;;;13.48;100.00;98246.72;5093415;28;20267;-51
2022/06/09 00:44:55;;;;;;;1.87;0.90;;;;;;;13.46;100.00;98240.84;5093159;28;20262;-51
2022/06/09 00:47:27;;;;;;;1.00;0.90;;;;;;;13.45;100.00;98249.69;5091813;28;20191;-51
2022/06/09 00:50:00;;;;;;;1.27;0.60;;;;;;;13.41;100.00;98254.44;5093157;28;20617;-52
2022/06/09 00:52:32;;;;;;;5.23;1.13;;;;;;;13.36;100.00;98252.34;5093461;28;20190;-51
2022/06/09 00:55:04;;;;;;;3.27;1.10;;;;;;;13.29;100.00;98240.94;5093400;28;20189;-53
2022/06/09 00:57:35;;;;;;;2.40;1.13;;;;;;;13.26;100.00;98247.34;5093032;28;20206;-51
2022/06/09 01:00:07;;;;;;;4.33;1.47;;;;;;;13.23;100.00;98252.97;5093043;28;20233;-51
2022/06/09 01:02:36;;;;;;;3.33;1.10;;;;;;;13.25;100.00;98252.78;5092985;28;20214;-50
2022/06/09 01:05:07;;;;;;;3.37;1.10;;;;;;;13.24;100.00;98264.25;5092732;28;20202;-51
2022/06/09 01:07:38;;;;;;;2.90;0.93;;;;;;;13.24;100.00;98254.59;5092546;28;20711;-51
2022/06/09 01:10:06;;;;;;;3.13;0.90;;;;;;;13.22;100.00;98259.22;5092991;28;20192;-51
2022/06/09 01:12:36;;;;;;;1.90;0.93;;;;;;;13.24;100.00;98259.03;5092966;28;20229;-51
2022/06/09 01:15:09;;;;;;;6.20;1.50;;;;;;;13.24;100.00;98259.03;5092691;28;20191;-53
2022/06/09 01:17:50;;;;;;;2.83;0.90;;;;;;;13.24;100.00;98256.41;5092506;28;20237;-51
2022/06/09 01:20:31;;;;;;;3.90;1.13;;;;;;;13.26;100.00;98257.84;5092655;28;20536;-50
2022/06/09 01:23:40;;;;;;;2.97;1.10;;;;;;;13.30;100.00;98260.94;5093074;28;20213;-51
2022/06/09 01:26:38;;;;;;;3.03;0.90;;;;;;;13.31;100.00;98257.31;5093284;28;20186;-53
2022/06/09 01:29:41;;;;;;;2.20;1.03;;;;;;;13.36;100.00;98254.97;5092053;28;20219;-53
2022/06/09 01:32:14;;;;;;;3.37;1.20;;;;;;;13.40;100.00;98264.13;5099574;28;20646;-53
2022/06/09 01:34:55;;;;;;;4.50;1.00;;;;;;;13.42;100.00;98269.19;5099471;28;20283;-53
2022/06/09 01:37:27;;;;;;;1.00;0.83;;;;;;;13.49;100.00;98264.06;5099302;28;20183;-50
2022/06/09 01:39:56;;;;;;;2.07;0.80;;;;;;;13.49;100.00;98270.13;5099471;28;20600;-52
2022/06/09 01:42:27;;;;;;;2.47;1.00;;;;;;;13.54;100.00;98270.41;5099540;28;20252;-53
2022/06/09 01:44:59;;;;;;;2.20;0.90;;;;;;;13.52;100.00;98275.00;5099630;28;20257;-51
2022/06/09 01:47:37;;;;;;;1.37;0.93;;;;;;;13.53;100.00;98276.63;5099715;28;20217;-52
2022/06/09 01:50:07;;;;;;;2.30;0.90;;;;;;;13.56;100.00;98272.84;5099261;28;20273;-51
2022/06/09 01:52:36;;;;;;;1.13;0.97;;;;;;;13.55;100.00;98279.09;5099345;28;20190;-50
2022/06/09 01:55:08;;;;;;;2.50;0.90;;;;;;;13.53;100.00;98278.47;5099082;28;20177;-50
2022/06/09 01:57:40;;;;;;;2.80;1.07;;;;;;;13.55;100.00;98289.59;5098740;28;20293;-50
2022/06/09 02:00:11;;;;;;;2.87;1.10;;;;;;;13.53;100.00;98288.94;5099449;28;20215;-51
2022/06/09 02:02:45;;;;;;;4.67;1.00;;;;;;;13.53;100.00;98289.75;5099276;28;20212;-53
2022/06/09 02:05:18;;;;;;;6.57;1.27;;;;;;;13.54;100.00;98285.34;5098965;28;20225;-50
2022/06/09 02:07:47;;;;;;;2.10;1.17;;;;;;;13.50;100.00;98286.69;5098365;28;20204;-50
2022/06/09 02:10:21;;;;;;;8.37;1.37;;;;;;;13.48;100.00;98292.09;5098836;28;20270;-53
2022/06/09 02:12:50;;;;;;;3.57;1.40;;;;;;;13.44;100.00;98296.06;5098752;28;20189;-52
2022/06/09 02:15:22;;;;;;;4.77;1.23;;;;;;;13.41;100.00;98292.00;5099141;28;20195;-51
2022/06/09 02:17:52;;;;;;;6.50;1.30;;;;;;;13.43;100.00;98297.88;5098923;28;20576;-51
2022/06/09 02:20:23;;;;;;;5.77;1.40;;;;;;;13.45;100.00;98297.69;5098700;28;20626;-53
2022/06/09 02:22:51;;;;;;;3.00;1.13;;;;;;;13.42;100.00;98296.25;5097607;28;20260;-52
2022/06/09 02:25:18;;;;;;;5.40;1.63;;;;;;;13.37;100.00;98306.41;5098849;28;20249;-51
2022/06/09 02:27:45;;;;;;;3.63;1.20;;;;;;;13.38;100.00;98302.81;5098551;28;20217;-50
2022/06/09 02:30:13;;;;;;;3.93;1.40;;;;;;;13.36;100.00;98304.78;5098830;28;20195;-53
2022/06/09 02:32:40;;;;;;;5.53;1.40;;;;;;;13.32;100.00;98307.91;5098809;28;20584;-51
2022/06/09 02:35:09;;;;;;;6.70;1.73;;;;;;;13.32;100.00;98308.75;5098726;28;20188;-51
2022/06/09 02:37:36;;;;;;;4.80;1.17;;;;;;;13.30;100.00;98308.13;5098474;28;20582;-50
2022/06/09 02:40:05;;;;;;;3.53;1.30;;;;;;;13.29;100.00;98304.66;5098879;28;20183;-51
2022/06/09 02:42:32;;;;;;;1.60;1.23;;;;;;;13.33;100.00;98305.13;5094431;28;20648;-50
2022/06/09 02:44:59;;;;;;;3.20;1.50;;;;;;;13.27;100.00;98314.50;5095319;28;20668;-51
2022/06/09 02:47:26;;;;;;;3.07;1.57;;;;;;;13.29;100.00;98317.75;5095030;28;20751;-51
2022/06/09 02:49:54;;;;;;;4.23;1.40;;;;;;;13.23;100.00;98315.03;5095479;28;20203;-53
2022/06/09 02:52:23;;;;;;;4.27;1.60;;;;;;;13.14;100.00;98309.88;5095399;28;20787;-50
2022/06/09 02:54:50;;;;;;;2.90;1.27;;;;;;;13.20;100.00;98316.22;5093976;28;20705;-51
2022/06/09 02:57:17;;;;;;;5.43;1.20;;;;;;;13.19;100.00;98304.13;5095150;28;20197;-52
2022/06/09 02:59:44;;;;;;;2.80;1.20;;;;;;;13.24;100.00;98307.03;5094928;28;20186;-50
2022/06/09 03:02:12;;;;;;;2.80;1.50;;;;;;;13.21;100.00;98319.66;5095154;28;20186;-51
2022/06/09 03:04:39;;;;;;;4.33;1.50;;;;;;;13.20;100.00;98316.22;5095112;28;20202;-51
2022/06/09 03:07:06;;;;;;;7.73;1.90;;;;;;;13.20;100.00;98323.25;5094866;28;20198;-51
2022/06/09 03:09:35;;;;;;;5.50;1.43;;;;;;;13.17;100.00;98318.38;5094651;28;20179;-50
2022/06/09 03:12:03;;;;;;;8.07;1.43;;;;;;;13.14;100.00;98328.22;5094716;28;20191;-50
2022/06/09 03:14:30;;;;;;;4.13;1.83;;;;;;;13.16;100.00;98330.66;5094732;28;20205;-53
2022/06/09 03:16:57;;;;;;;5.53;1.70;;;;;;;13.11;100.00;98333.00;5094937;28;20237;-52
2022/06/09 03:19:25;;;;;;;4.47;1.57;;;;;;;13.13;100.00;98338.88;5094236;28;20694;-50
2022/06/09 03:21:52;;;;;;;8.37;1.60;;;;;;;13.11;100.00;98341.66;5094553;28;20244;-52
2022/06/09 03:24:19;;;;;;;3.93;1.50;;;;;;;13.08;100.00;98341.22;5094659;28;20671;-52
2022/06/09 03:26:49;;;;;;;5.17;1.80;;;;;;;13.09;100.00;98343.63;5094589;28;20265;-50
2022/06/09 03:29:19;;;;;;;4.83;1.40;;;;;;;13.11;100.00;98338.25;5093365;28;20217;-53
2022/06/09 03:31:47;;;;;;;3.53;1.80;;;;;;;13.13;100.00;98344.91;5094890;28;20187;-53
2022/06/09 03:34:15;;;;;;;4.23;1.50;;;;;;;13.03;100.00;98341.72;5095064;28;20189;-53
2022/06/09 03:36:43;;;;;;;4.43;1.70;;;;;;;13.07;100.00;98348.25;5094884;28;20247;-51
2022/06/09 03:39:12;;;;;;;5.70;1.90;;;;;;;13.04;100.00;98348.59;5094646;28;20716;-53
2022/06/09 03:41:39;;;;;;;8.07;1.77;;;;;;;13.08;100.00;98351.69;5094653;28;20236;-52
2022/06/09 03:44:25;;;;;;;6.33;2.00;;;;;;;13.07;100.00;98356.09;5094960;28;20286;-50
2022/06/09 03:46:52;;;;;;;3.63;1.80;;;;;;;13.07;100.00;98363.16;5094402;28;20527;-52
2022/06/09 03:49:19;;;;;;;8.00;1.47;;;;;;;13.06;100.00;98367.56;5093907;28;20217;-52
2022/06/09 03:51:47;;;;;;;7.20;1.53;;;;;;;13.08;100.00;98370.84;5093071;28;20201;-51
2022/06/09 03:54:14;;;;;;;7.83;1.70;;;;;;;13.11;100.00;98367.88;5093964;28;20221;-53
2022/06/09 03:56:44;;;;;;;5.20;1.67;;;;;;;13.15;100.00;98373.59;5094023;28;20192;-51
2022/06/09 03:59:11;;;;;;;6.10;1.80;;;;;;;13.14;100.00;98378.00;5093769;28;20201;-53
2022/06/09 04:01:40;;;;;;;6.37;1.60;;;;;;;13.14;100.00;98372.75;5094528;28;20201;-53
2022/06/09 04:04:07;;;;;;;6.20;1.60;;;;;;;13.16;100.00;98387.50;5092463;28;20541;-51
2022/06/09 04:06:35;;;;;;;3.70;1.57;;;;;;;13.18;100.00;98381.09;5093843;28;20265;-51
2022/06/09 04:09:04;;;;;;;6.47;1.60;;;;;;;13.14;100.00;98385.84;5093639;28;20204;-52
2022/06/09 04:11:32;;;;;;;5.93;1.43;;;;;;;13.16;100.00;98392.72;5094138;28;20197;-53
2022/06/09 04:13:59;;;;;;;5.67;1.90;;;;;;;13.10;100.00;98394.25;5093888;28;20562;-50
2022/06/09 04:16:30;;;;;;;3.70;1.37;;;;;;;13.17;100.00;98395.19;5093852;28;20191;-51
2022/06/09 04:19:02;;;;;;;4.60;1.80;;;;;;;13.12;100.00;98402.75;5093754;28;20204;-53
2022/06/09 04:21:32;;;;;;;3.80;1.43;;;;;;;13.24;100.00;98404.00;5093963;28;20189;-51
2022/06/09 04:23:59;;;;;;;7.67;1.63;;;;;;;13.24;100.00;98406.63;5092438;28;20190;-52
2022/06/09 04:26:31;;;;;;;5.33;1.70;;;;;;;13.21;100.00;98409.59;5093668;28;20214;-50
2022/06/09 04:28:58;;;;;;;3.27;1.63;;;;;;;13.24;100.00;98409.25;5093163;28;20293;-53
2022/06/09 04:31:25;;;;;;;7.53;1.73;;;;;;;13.27;100.00;98421.16;5093380;28;20192;-50
2022/06/09 04:33:52;;;;;;;6.63;1.70;;;;;;;13.32;100.00;98423.25;5093761;28;20730;-51
2022/06/09 04:36:21;;;;;;;7.63;1.67;;;;;;;13.40;100.00;98421.41;5093718;28;20198;-51
2022/06/09 04:38:48;;;;;;;5.90;1.70;;;;;;;13.54;100.00;98421.69;5093099;28;20217;-50
2022/06/09 04:41:17;;;;;;;5.63;1.77;;;;;;;13.48;100.00;98431.06;5093568;28;20235;-50
2022/06/09 04:43:46;;;;;;;4.07;1.50;;;;;;;13.48;98.54;98433.69;5094146;28;20187;-50
2022/06/09 04:46:17;;;;;;;5.33;1.63;;;;;;;13.54;98.16;98440.84;5093932;28;20250;-51
2022/06/09 04:48:45;;;;;;;7.47;2.20;;;;;;;13.54;97.54;98438.22;5093155;28;20209;-51
2022/06/09 04:51:16;;;;;;;12.57;1.70;;;;;;;13.53;96.09;98444.47;5093407;28;20186;-51
2022/06/09 04:53:45;;;;;;;6.37;1.63;;;;;;;13.49;94.08;98442.38;5093881;28;20182;-53
2022/06/09 04:56:14;;;;;;;8.70;2.07;;;;;;;13.54;94.58;98442.66;5093397;28;20188;-52
2022/06/09 04:58:42;;;;;;;11.93;1.50;;;;;;;13.36;92.13;98451.59;5092414;28;20613;-53
2022/06/09 05:01:15;;;;;;;7.37;1.73;;;;;;;13.58;93.10;98467.56;5093076;28;20609;-51
2022/06/09 05:03:42;;;;;;;4.70;1.60;;;;;;;13.68;95.68;98457.66;5092515;28;20216;-51
2022/06/09 05:06:10;;;;;;;7.43;1.77;;;;;;;13.74;92.92;98450.88;5091833;28;20214;-53
2022/06/09 05:08:38;;;;;;;7.37;1.40;;;;;;;13.77;92.82;98462.84;5092445;28;20209;-53
2022/06/09 05:11:08;;;;;;;8.40;1.73;;;;;;;13.86;93.48;98467.00;5092844;28;20193;-51
2022/06/09 05:13:35;;;;;;;5.47;1.43;;;;;;;13.79;92.38;98468.69;5092752;28;20539;-51
2022/06/09 05:16:05;;;;;;;5.50;1.60;;;;;;;13.83;90.98;98475.22;5092670;28;20228;-53
2022/06/09 05:18:33;;;;;;;6.57;1.13;;;;;;;13.80;91.46;98468.53;5092289;28;20275;-53
2022/06/09 05:21:01;;;;;;;8.93;1.53;;;;;;;13.80;92.14;98479.03;5092827;28;20682;-51
2022/06/09 05:23:29;;;;;;;5.83;1.37;;;;;;;13.85;92.29;98481.13;5092441;28;20195;-51
2022/06/09 05:25:58;;;;;;;7.60;1.43;;;;;;;13.93;92.00;98482.88;5092774;28;20268;-51
2022/06/09 05:28:29;;;;;;;6.67;1.60;;;;;;;14.03;88.58;98486.06;5092486;28;20295;-52
2022/06/09 05:30:57;;;;;;;3.47;1.30;;;;;;;14.08;91.12;98496.88;5092802;28;20184;-50
2022/06/09 05:33:24;;;;;;;7.23;1.60;;;;;;;13.91;88.32;98495.34;5092817;28;20243;-51
2022/06/09 05:35:52;;;;;;;8.30;1.27;;;;;;;14.00;89.18;98492.47;5092289;28;20269;-53
2022/06/09 05:46:35;;;;;;;8.73;1.40;;;;;;;14.11;89.76;98499.13;5092380;28;20218;-51
2022/06/09 05:49:03;;;;;;;8.20;2.30;;;;;;;14.05;88.73;98491.13;5091901;28;20205;-53
2022/06/09 05:51:32;;;;;;;7.40;1.87;;;;;;;13.88;90.17;98494.72;5092658;28;20249;-52
2022/06/09 05:53:59;;;;;;;8.53;1.80;;;;;;;13.65;90.29;98497.34;5092385;28;20232;-51
2022/06/09 05:56:27;;;;;;;7.37;1.17;;;;;;;13.55;90.68;98500.16;5092385;28;20183;-50
2022/06/09 05:58:56;;;;;;;8.47;1.40;;;;;;;13.53;91.16;98503.97;5091987;28;20675;-52
2022/06/09 06:01:23;;;;;;;11.70;1.60;;;;;;;13.57;91.45;98508.69;5092467;28;20179;-51
2022/06/09 06:03:51;;;;;;;10.63;1.67;;;;;;;13.65;90.23;98513.06;5092275;28;20187;-51
2022/06/09 06:06:37;;;;;;;9.60;2.03;;;;;;;13.66;91.12;98512.09;5092388;28;20265;-53
2022/06/09 06:09:06;;;;;;;12.43;2.27;;;;;;;13.70;90.95;98516.00;5091977;28;20198;-53
2022/06/09 06:11:35;;;;;;;9.00;1.97;;;;;;;13.75;89.43;98512.03;5092203;28;20218;-51
2022/06/09 06:14:04;;;;;;;8.57;1.93;;;;;;;13.84;88.39;98519.66;5092046;28;20200;-51
2022/06/09 06:16:32;;;;;;;7.03;1.30;;;;;;;13.67;89.73;98516.34;5093204;28;20187;-52
2022/06/09 06:18:59;;;;;;;12.97;2.10;;;;;;;13.75;87.76;98518.09;5095829;28;20265;-50
2022/06/09 06:21:26;;;;;;;9.43;1.73;;;;;;;13.84;86.88;98527.53;5096041;28;20198;-51
2022/06/09 06:23:55;;;;;;;7.87;1.70;;;;;;;14.01;88.00;98524.81;5095721;28;20186;-51
2022/06/09 06:26:22;;;;;;;7.70;1.77;;;;;;;14.11;87.64;98524.56;5095697;28;20702;-51
2022/06/09 06:28:50;;;;;;;12.20;1.87;;;;;;;14.21;86.93;98526.94;5095468;28;20215;-51
2022/06/09 06:31:19;;;;;;;6.07;1.60;;;;;;;14.55;85.64;98538.78;5095774;28;20190;-51
2022/06/09 06:33:46;;;;;;;7.23;1.60;;;;;;;14.77;82.86;98534.50;5095792;28;20555;-53
2022/06/09 06:36:13;;;;;;;6.53;2.10;;;;;;;14.85;84.09;98542.28;5095665;28;20198;-51
2022/06/09 06:38:42;;;;;;;8.70;1.33;;;;;;;15.01;80.44;98537.84;5095153;28;20217;-52
2022/06/09 06:41:12;;;;;;;3.40;1.30;;;;;;;15.07;81.80;98544.22;5095601;28;20191;-51
2022/06/09 06:43:39;;;;;;;8.27;1.60;;;;;;;15.04;78.48;98540.13;5095596;28;20648;-52
2022/06/09 06:46:07;;;;;;;9.67;1.80;;;;;;;15.20;80.88;98541.75;5095233;28;20705;-53
2022/06/09 06:48:36;;;;;;;9.40;1.90;;;;;;;15.57;80.45;98552.31;5095386;28;20215;-52
2022/06/09 06:51:05;;;;;;;7.53;1.73;;;;;;;15.70;78.31;98551.63;5095967;28;20276;-50
2022/06/09 06:53:33;;;;;;;7.23;2.13;;;;;;;15.84;77.20;98544.69;5094132;28;20200;-52
2022/06/09 06:56:00;;;;;;;7.40;1.40;;;;;;;16.06;77.58;98558.72;5095474;28;20185;-53
2022/06/09 06:58:28;;;;;;;7.73;1.40;;;;;;;16.07;76.88;98563.78;5095032;28;20263;-50
2022/06/09 07:00:56;;;;;;;9.00;1.53;;;;;;;16.35;76.64;98565.66;5095187;28;20178;-52
2022/06/09 07:03:23;;;;;;;5.93;1.77;;;;;;;16.56;74.81;98565.78;5095353;28;20216;-53
2022/06/09 07:05:52;;;;;;;8.53;1.40;;;;;;;16.57;74.45;98563.00;5095522;28;20240;-50
2022/06/09 07:08:20;;;;;;;6.20;1.50;;;;;;;16.73;74.65;98574.25;5095017;28;20206;-51
2022/06/09 07:10:47;;;;;;;5.37;1.73;;;;;;;16.58;75.00;98564.63;5094931;28;20675;-52
2022/06/09 07:13:14;;;;;;;6.73;1.40;;;;;;;16.76;73.26;98574.66;5095116;28;20303;-53
2022/06/09 07:15:42;;;;;;;7.57;1.80;;;;;;;16.53;73.81;98578.34;5095071;28;20206;-51
2022/06/09 07:18:11;;;;;;;8.27;1.60;;;;;;;16.81;73.12;98587.28;5095021;28;20220;-51
2022/06/09 07:20:40;;;;;;;8.87;1.60;;;;;;;16.54;73.20;98576.53;5093862;28;20203;-51
2022/06/09 07:23:10;;;;;;;7.60;1.83;;;;;;;16.57;73.78;98572.69;5095109;28;20189;-51
2022/06/09 07:25:37;;;;;;;6.37;1.67;;;;;;;16.43;75.28;98574.41;5095055;28;20212;-50
2022/06/09 07:28:05;;;;;;;11.30;1.77;;;;;;;16.26;74.69;98576.50;5094078;28;20608;-51
2022/06/09 07:30:33;;;;;;;9.73;2.00;;;;;;;16.02;77.37;98587.22;5094654;28;20281;-52
2022/06/09 07:33:00;;;;;;;6.43;1.80;;;;;;;16.36;75.35;98587.56;5093403;28;20217;-53
2022/06/09 07:35:30;;;;;;;6.80;1.77;;;;;;;16.77;73.67;98578.94;5094755;28;20191;-50
2022/06/09 07:37:58;;;;;;;7.77;2.47;;;;;;;17.01;73.40;98589.25;5094738;28;20619;-51
2022/06/09 07:40:27;;;;;;;6.20;1.70;;;;;;;16.95;73.56;98589.00;5093175;28;20186;-51
2022/06/09 07:42:56;;;;;;;7.93;1.87;;;;;;;16.89;71.02;98592.41;5094534;28;20220;-51
2022/06/09 07:45:23;;;;;;;6.00;1.40;;;;;;;17.15;72.52;98596.22;5094968;28;20521;-50
2022/06/09 07:47:50;;;;;;;8.00;1.40;;;;;;;17.43;70.28;98592.72;5094374;28;20210;-51
2022/06/09 07:50:17;;;;;;;6.67;1.67;;;;;;;17.52;68.86;98602.09;5093351;28;20720;-52
2022/06/09 07:52:44;;;;;;;8.27;1.80;;;;;;;17.26;70.26;98598.31;5093362;28;20281;-52
2022/06/09 07:55:15;;;;;;;6.70;1.90;;;;;;;17.46;71.26;98592.34;5094787;28;20193;-53
2022/06/09 07:57:45;;;;;;;7.17;1.90;;;;;;;17.68;68.76;98602.78;5094797;28;20887;-50
2022/06/09 08:00:14;;;;;;;4.80;1.40;;;;;;;17.82;66.21;98603.63;5094781;28;20269;-53
2022/06/09 08:02:42;;;;;;;5.40;1.50;;;;;;;17.44;67.63;98607.56;5094799;28;20185;-53
2022/06/09 08:05:11;;;;;;;5.30;1.50;;;;;;;17.05;70.00;98607.13;5096166;28;20189;-52
2022/06/09 08:07:38;;;;;;;8.37;1.43;;;;;;;16.78;71.12;98606.91;5094624;28;20216;-50
2022/06/09 08:10:07;;;;;;;8.13;1.47;;;;;;;16.52;68.76;98610.97;5094039;28;20214;-51
2022/06/09 08:12:35;;;;;;;8.77;1.30;;;;;;;16.46;68.97;98613.56;5094083;28;20600;-52
2022/06/09 08:15:04;;;;;;;9.87;1.60;;;;;;;16.28;69.50;98608.75;5094002;28;20720;-50
2022/06/09 08:17:32;;;;;;;7.77;1.50;;;;;;;16.20;69.64;98610.50;5093948;28;20196;-51
2022/06/09 08:19:58;;;;;;;5.73;1.60;;;;;;;16.83;69.39;98611.63;5094246;28;20184;-51
2022/06/09 08:22:27;;;;;;;10.30;1.50;;;;;;;17.48;69.23;98616.69;5093890;28;20196;-51
2022/06/09 08:24:54;;;;;;;4.90;1.40;;;;;;;17.75;66.56;98611.53;5093862;28;20698;-51
2022/06/09 08:27:21;;;;;;;7.23;1.50;;;;;;;17.15;67.09;98612.06;5093891;28;20217;-51
2022/06/09 08:29:48;;;;;;;6.23;1.47;;;;;;;16.96;66.79;98614.38;5093554;28;20183;-52
2022/06/09 08:32:17;;;;;;;9.27;1.80;;;;;;;17.55;65.17;98611.44;5094026;28;20363;-53
2022/06/09 08:34:45;;;;;;;9.73;1.73;;;;;;;17.25;66.30;98617.00;5093633;28;20243;-51
2022/06/09 08:37:12;;;;;;;10.00;1.60;;;;;;;17.21;65.73;98631.59;5093234;28;20183;-50
2022/06/09 08:39:39;;;;;;;6.97;1.50;;;;;;;16.94;62.20;98619.03;5092444;28;20193;-53
2022/06/09 08:42:22;;;;;;;6.80;1.60;;;;;;;16.75;64.16;98614.41;5093616;28;20649;-51
2022/06/09 08:44:56;;;;;;;4.30;1.20;;;;;;;16.96;66.10;98613.53;5093183;28;20209;-51
2022/06/09 08:47:34;;;;;;;6.30;1.40;;;;;;;17.65;63.58;98619.81;5093289;28;20596;-52
2022/06/09 08:50:13;;;;;;;8.37;1.50;;;;;;;18.07;62.16;98618.97;5093729;28;20239;-53
2022/06/09 08:52:50;;;;;;;4.13;1.37;;;;;;;18.66;59.33;98621.88;5093519;28;20186;-51
2022/06/09 08:55:26;;;;;;;7.03;1.37;;;;;;;18.37;61.13;98629.19;5092671;28;20194;-51
2022/06/09 08:57:59;;;;;;;5.03;1.10;;;;;;;18.81;57.09;98625.13;5092382;28;20631;-51
2022/06/09 09:00:34;;;;;;;5.57;1.17;;;;;;;18.58;57.22;98631.63;5093779;28;20186;-51
2022/06/09 09:03:10;;;;;;;4.97;1.80;;;;;;;17.81;61.90;98626.59;5093731;28;20580;-53
2022/06/09 09:05:40;;;;;;;7.67;1.47;;;;;;;17.77;63.33;98635.09;5092924;28;20597;-51
2022/06/09 09:08:10;;;;;;;5.10;1.10;;;;;;;17.91;62.50;98635.97;5092803;28;20231;-52
2022/06/09 09:10:48;;;;;;;4.43;1.10;;;;;;;17.99;62.39;98639.25;5093257;28;20236;-53
2022/06/09 09:13:38;;;;;;;6.43;1.23;;;;;;;18.07;57.72;98643.53;5093474;28;20179;-52
2022/06/09 09:16:13;;;;;;;6.37;1.13;;;;;;;17.73;58.71;98639.13;5093836;28;20631;-51
2022/06/09 09:18:49;;;;;;;7.93;1.10;;;;;;;17.55;60.40;98643.94;5093523;28;20337;-52
2022/06/09 09:21:27;;;;;;;3.23;0.90;;;;;;;17.98;60.30;98648.16;5093302;28;20190;-51
2022/06/09 09:24:01;;;;;;;4.03;1.10;;;;;;;18.66;57.58;98650.94;5093048;28;20254;-51
2022/06/09 09:26:43;;;;;;;4.50;1.10;;;;;;;18.98;53.71;98662.59;5092856;28;20224;-52
2022/06/09 09:29:16;;;;;;;4.93;1.00;;;;;;;18.70;55.41;98658.28;5091266;28;20206;-51
2022/06/09 09:31:50;;;;;;;8.93;1.10;;;;;;;18.30;58.01;98655.59;5092883;28;20545;-51
2022/06/09 09:34:22;;;;;;;4.37;1.20;;;;;;;17.92;59.32;98656.06;5092879;28;20187;-51
2022/06/09 09:36:59;;;;;;;4.00;1.57;;;;;;;18.37;56.88;98663.53;5091992;28;20202;-51
2022/06/09 09:39:36;;;;;;;5.33;1.17;;;;;;;18.42;56.32;98667.19;5092586;28;20216;-51
2022/06/09 09:42:13;;;;;;;3.93;0.90;;;;;;;18.48;55.95;98662.94;5092619;28;20190;-50
2022/06/09 09:44:40;;;;;;;3.80;0.93;;;;;;;17.81;57.12;98674.13;5091426;28;20220;-51
2022/06/09 09:47:08;;;;;;;6.20;1.50;;;;;;;17.97;58.33;98675.59;5092496;28;20210;-51
2022/06/09 09:49:49;;;;;;;5.10;1.57;;;;;;;18.52;56.39;98666.00;5092737;28;20265;-51
2022/06/09 09:52:40;;;;;;;3.80;1.17;;;;;;;19.29;54.92;98662.94;5096834;28;20260;-53
2022/06/09 09:55:30;;;;;;;9.20;1.37;;;;;;;19.13;54.89;98670.28;5096047;28;20278;-51
2022/06/09 09:58:24;;;;;;;6.60;1.00;;;;;;;19.29;56.26;98666.38;5096163;28;20202;-53
2022/06/09 10:00:54;;;;;;;6.03;1.20;;;;;;;19.55;51.80;98677.16;5095812;28;20203;-51
2022/06/09 10:09:15;;;;;;;2.80;0.73;;;;;;;20.36;50.13;98669.66;5096586;28;20259;-51
2022/06/09 10:11:54;;;;;;;6.17;1.43;;;;;;;20.30;49.14;98676.63;5097854;28;20742;-53
2022/06/09 10:14:42;;;;;;;4.77;1.30;;;;;;;19.03;51.58;98675.19;5096930;28;20242;-53
2022/06/09 10:17:27;;;;;;;5.27;0.77;;;;;;;19.71;51.01;98673.22;5097978;28;20187;-52
2022/06/09 10:20:26;;;;;;;2.87;0.70;;;;;;;19.47;51.86;98686.09;5097693;28;20491;-53
2022/06/09 10:23:26;;;;;;;5.67;0.80;;;;;;;18.54;53.36;98693.03;5096374;28;20202;-53
2022/06/09 10:25:59;;;;;;;4.57;0.87;;;;;;;18.49;53.62;98685.72;5096026;28;20272;-52
2022/06/09 10:28:36;;;;;;;4.63;1.00;;;;;;;18.80;53.87;98686.94;5095891;28;20453;-51
2022/06/09 10:31:10;;;;;;;9.50;1.40;;;;;;;18.89;54.38;98698.16;5096556;28;20590;-53
2022/06/09 10:33:45;;;;;;;6.23;1.50;;;;;;;18.68;55.72;98684.09;5096295;28;20186;-53
2022/06/09 10:36:20;;;;;;;3.17;0.83;;;;;;;18.61;54.57;98687.75;5096257;28;20178;-51
2022/06/09 10:38:52;;;;;;;5.97;0.93;;;;;;;18.63;53.53;98683.91;5095705;28;20642;-53
2022/06/09 10:41:27;;;;;;;6.97;1.20;;;;;;;18.33;55.34;98684.25;5096412;28;20367;-51
2022/06/09 10:43:58;;;;;;;4.07;1.20;;;;;;;18.41;53.38;98693.84;5095987;28;20189;-53
2022/06/09 10:46:34;;;;;;;5.70;1.37;;;;;;;18.57;53.75;98695.28;5094537;28;20280;-51
2022/06/09 10:55:15;;;;;;;4.17;0.97;;;;;;;18.69;54.89;98683.09;5094110;28;20210;-53
2022/06/09 10:57:51;;;;;;;6.03;1.40;;;;;;;18.80;54.03;98688.78;5095257;28;20256;-51
2022/06/09 11:00:24;;;;;;;2.77;1.27;;;;;;;19.33;55.56;98685.34;5095547;28;20181;-53
2022/06/09 11:02:54;;;;;;;3.53;0.90;;;;;;;19.99;55.46;98685.38;5093667;28;20248;-51
2022/06/09 11:05:29;;;;;;;4.73;1.00;;;;;;;20.23;49.77;98688.28;5095535;28;20283;-51
2022/06/09 11:08:08;;;;;;;5.27;1.17;;;;;;;20.11;50.04;98681.03;5095161;28;20222;-50
2022/06/09 11:10:55;;;;;;;6.73;1.03;;;;;;;19.44;52.15;98692.66;5095324;28;20200;-51
2022/06/09 11:13:50;;;;;;;8.47;1.30;;;;;;;19.38;54.74;98684.69;5095450;28;20277;-51
2022/06/09 11:16:28;;;;;;;4.87;1.20;;;;;;;19.49;52.27;98688.56;5095633;28;20628;-52
2022/06/09 11:19:27;;;;;;;3.40;1.20;;;;;;;19.83;49.46;98686.59;5095440;28;20623;-51
2022/06/09 11:22:01;;;;;;;3.13;0.70;;;;;;;20.01;49.51;98691.25;5095314;28;20274;-52
2022/06/09 11:24:35;;;;;;;3.07;0.90;;;;;;;19.96;46.61;98685.78;5095352;28;20211;-51
2022/06/09 11:27:20;;;;;;;4.30;1.13;;;;;;;19.05;47.44;98680.28;5095086;28;20200;-51
2022/06/09 11:30:06;;;;;;;4.10;0.97;;;;;;;18.59;52.19;98678.19;5095195;28;20267;-51
2022/06/09 11:32:41;;;;;;;4.60;0.90;;;;;;;18.74;50.33;98688.59;5096235;28;20189;-51
2022/06/09 11:35:20;;;;;;;5.70;1.23;;;;;;;18.34;52.86;98714.94;5095052;28;20177;-51
2022/06/09 11:38:09;;;;;;;4.33;1.03;;;;;;;17.40;56.37;98728.50;5093141;28;20304;-53
2022/06/09 11:40:43;;;;;;;4.57;1.23;;;;;;;17.09;59.17;98713.03;5093349;28;20193;-51
2022/06/09 11:43:28;;;;;;;7.77;1.57;;;;;;;17.54;58.02;98716.22;5093087;28;20557;-51
2022/06/09 11:45:58;;;;;;;8.17;1.70;;;;;;;17.32;61.13;98726.03;5094625;28;20225;-53
2022/06/09 11:48:31;;;;;;;4.60;1.50;;;;;;;17.37;60.86;98717.50;5094077;28;20210;-51
2022/06/09 11:51:03;;;;;;;4.07;1.27;;;;;;;17.24;61.35;98721.69;5092965;28;20190;-51
2022/06/09 11:53:40;;;;;;;8.63;1.60;;;;;;;17.68;60.24;98729.47;5094195;28;20261;-51
2022/06/09 11:56:39;;;;;;;4.20;1.63;;;;;;;18.16;59.09;98739.28;5094637;28;20200;-52
2022/06/09 11:59:21;;;;;;;7.37;1.10;;;;;;;18.51;57.12;98733.91;5094378;28;20267;-51
2022/06/09 12:02:27;;;;;;;5.87;1.50;;;;;;;19.40;55.58;98748.84;5094354;28;20649;-53
2022/06/09 12:05:16;;;;;;;3.73;1.23;;;;;;;19.95;54.23;98743.25;5094694;28;20191;-51
2022/06/09 12:08:08;;;;;;;5.47;1.33;;;;;;;20.75;51.91;98749.97;5094692;28;20633;-51
2022/06/09 12:10:54;;;;;;;6.50;0.97;;;;;;;21.07;51.21;98751.81;5093483;28;20294;-54